Detall de PIREP

Printer-friendly versionPDF version

[2012/02/24 21:18:00]
Flight IATA:CT1004
Pilot Number:037
Company ICAO:CAT
Aircraft Type:B752/E
PAX:91
Departing Airport: LEIB
Destination Airport: LFMN
Alternate Airport:LFML
Online: VATSIM
Route:MHN UN853 LUMAS UM976 SOFFY UM976 MRM UY122 ABLAK
Flight Level:F300
No Slew and time accel
No pause
Crash detect
Detect pilot in Cockpit between each 30 and 45 minutes
21:18 Zero fuel Weight: 157741 Lbs, Fuel Weight: 21261 Lbs
21:18 VATSIM:LEIB 242100Z VRB01KT CAVOK 08/07 Q1028 NOSIG
21:18 VATSIM:LFMN 242100Z 32006KT 8000 FEW014 10/07 Q1026 NOSIG
21:30 Parking Brakes off
21:38 Take-off
21:38 Take off Weight: 177873 Lbs
21:38 Wind: 217º @ 000 Knots Heading: 062º
21:38 POS N38º 52´ 20´´ E001º 22´ 18´´
21:38 Gear Up: 173 Knots
21:38 Flaps:3 at 173 Knots
21:38 Flaps:2 at 206 Knots
21:38 Flaps:1 at 205 Knots
21:39 Flaps:0 at 208 Knots
21:50 TOC
21:50 Fuel Weight: 16984 Lb
21:53 Wind:048º@003 Knots Heading: 065º Ground Speed: 483 Knots Altitude 30423 ft
22:08 Wind:253º@008 Knots Heading: 009º Ground Speed: 494 Knots Altitude 30400 ft
22:23 Wind:359º@016 Knots Heading: 015º Ground Speed: 470 Knots Altitude 30360 ft
22:23 TOD
22:23 Fuel Weight: 10490 Lb
22:38 Wind:351º@001 Knots Heading: 108º Ground Speed: 293 Knots Altitude 9133 ft
22:44 Flaps:1 at 211 Knots
22:47 Flaps:2 at 189 Knots
22:48 Flaps:3 at 172 Knots
22:51 Flaps:4 at 164 Knots
22:51 Gear Down: 164 Knots
22:52 Flaps:5 at 136 Knots
22:53 Wind:321º@007 Knots Heading: 042º Ground Speed: 135 Knots Altitude 1440 ft
22:54 Flaps:6 at 125 Knots
22:55 TouchDown:Rate -269 ft/min Speed: 116 Knots
22:55 VATSIM:LFMN 242230Z 32007KT 8000 SCT015 09/06 Q1026 NOSIG
22:55 Land
22:55 Wind:321º@007 Knots
22:55 Heading: 042º
22:55 Flight Duration: 01:17
22:55 Landing Weight: 165762 Lbs
22:55 POS N43º 39´ 46´´ E007º 13´ 08´´
22:57 Parking brakes on
22:57 Block to Block Duration: 01:27
22:57 Final Fuel: 7766 Lbls
22:57 Spent Fuel: 13494 Lbls
22:57 Flight Length: 447 NM
22:57 TOD Land Length: 119 NM

Exportar CSV

Powered by Drupal - Modified by Danger4k